createdAt,value
2018-01-28T00:01:54.987Z,86.90
2018-01-28T00:04:23.291Z,87.50
2018-01-28T00:06:50.834Z,87.00
2018-01-28T00:09:19.103Z,87.30
2018-01-28T00:11:47.396Z,87.10
2018-01-28T00:14:14.892Z,87.10
2018-01-28T00:16:42.459Z,86.80
2018-01-28T00:19:09.976Z,86.60
2018-01-28T00:21:37.473Z,86.30
2018-01-28T00:24:04.985Z,86.40
2018-01-28T00:26:32.515Z,87.00
2018-01-28T00:29:00.090Z,87.70
2018-01-28T00:31:28.582Z,88.60
2018-01-28T00:33:56.116Z,88.40
2018-01-28T00:36:23.642Z,88.90
2018-01-28T00:38:51.161Z,89.60
2018-01-28T00:41:18.707Z,89.50
2018-01-28T00:43:46.984Z,89.30
2018-01-28T00:46:15.242Z,88.80
2018-01-28T00:48:43.527Z,89.30
2018-01-28T00:51:11.808Z,87.90
2018-01-28T00:53:40.103Z,88.00
2018-01-28T00:56:07.604Z,88.00
2018-01-28T00:58:35.139Z,87.70
2018-01-28T01:01:02.652Z,88.30
2018-01-28T01:03:30.943Z,87.00
2018-01-28T01:05:58.483Z,87.00
2018-01-28T01:08:26.781Z,86.80
2018-01-28T01:10:54.303Z,86.80
2018-01-28T01:13:21.805Z,86.60
2018-01-28T01:15:49.353Z,86.50
2018-01-28T01:18:16.864Z,86.20
2018-01-28T01:20:44.373Z,86.70
2018-01-28T01:23:11.910Z,86.90
2018-01-28T01:25:40.195Z,87.00
2018-01-28T01:28:07.721Z,87.00
2018-01-28T01:30:35.227Z,86.50
2018-01-28T01:33:02.746Z,86.40
2018-01-28T01:35:31.023Z,86.30
2018-01-28T01:37:59.316Z,86.50
2018-01-28T01:40:26.837Z,86.40
2018-01-28T01:42:55.858Z,87.40
2018-01-28T01:45:24.218Z,87.70
2018-01-28T01:47:51.728Z,87.70
2018-01-28T01:50:19.252Z,88.20
2018-01-28T01:52:47.525Z,86.80
2018-01-28T01:55:15.826Z,86.40
2018-01-28T01:57:43.324Z,86.40
2018-01-28T02:00:10.822Z,86.10
2018-01-28T02:02:38.353Z,85.60
2018-01-28T02:05:05.846Z,85.90
2018-01-28T02:07:33.403Z,85.80
2018-01-28T02:10:00.939Z,85.50
2018-01-28T02:12:29.236Z,85.20
2018-01-28T02:14:56.728Z,85.10
2018-01-28T02:17:24.216Z,84.90
2018-01-28T02:19:51.756Z,85.50
2018-01-28T02:22:19.242Z,84.50
2018-01-28T02:24:47.520Z,85.20
2018-01-28T02:27:15.780Z,85.50
2018-01-28T02:29:43.303Z,85.40
2018-01-28T02:32:10.813Z,85.00
2018-01-28T02:34:39.111Z,84.90
2018-01-28T02:37:06.618Z,84.90
2018-01-28T02:39:34.116Z,84.70
2018-01-28T02:42:01.635Z,84.80
2018-01-28T02:44:29.168Z,85.00
2018-01-28T02:46:56.704Z,85.30
2018-01-28T02:49:24.212Z,85.80
2018-01-28T02:51:51.725Z,86.00
2018-01-28T02:54:19.236Z,86.40
2018-01-28T02:56:46.736Z,86.40
2018-01-28T02:59:14.256Z,86.40
2018-01-28T03:01:42.537Z,87.40
2018-01-28T03:04:10.832Z,86.70
2018-01-28T03:06:38.374Z,86.70
2018-01-28T03:09:06.695Z,87.00
2018-01-28T03:11:34.213Z,86.90
2018-01-28T03:14:02.511Z,87.00
2018-01-28T03:16:30.060Z,87.00
2018-01-28T03:18:57.580Z,87.10
2018-01-28T03:21:25.132Z,87.10
2018-01-28T03:23:53.412Z,87.30
2018-01-28T03:26:20.935Z,87.20
2018-01-28T03:28:48.455Z,87.30
2018-01-28T03:31:16.740Z,87.10
2018-01-28T03:33:44.274Z,87.10
2018-01-28T03:36:12.547Z,87.30
2018-01-28T03:38:40.843Z,87.30
2018-01-28T03:41:08.376Z,87.30
2018-01-28T03:43:35.904Z,87.30
2018-01-28T03:46:03.404Z,87.40
2018-01-28T03:48:31.664Z,87.40
2018-01-28T03:50:59.192Z,87.40
2018-01-28T03:53:26.703Z,87.70
2018-01-28T03:55:54.234Z,87.50
2018-01-28T03:58:21.734Z,87.70
2018-01-28T04:00:49.245Z,87.30
2018-01-28T04:03:16.793Z,87.20
2018-01-28T04:05:44.307Z,87.00
2018-01-28T04:08:11.836Z,86.80
2018-01-28T04:10:40.113Z,86.20
2018-01-28T04:13:08.431Z,86.30
2018-01-28T04:15:36.118Z,86.10
2018-01-28T04:18:04.424Z,86.00
2018-01-28T04:20:32.713Z,85.90
2018-01-28T04:23:00.216Z,86.70
2018-01-28T04:25:27.767Z,86.10
2018-01-28T04:27:55.304Z,85.80
2018-01-28T04:30:22.852Z,85.60
2018-01-28T04:32:50.348Z,85.60
2018-01-28T04:35:17.847Z,85.70
2018-01-28T04:37:46.175Z,85.80
2018-01-28T04:40:13.690Z,85.60
2018-01-28T04:42:42.013Z,85.60
2018-01-28T04:45:09.523Z,85.50
2018-01-28T04:47:37.820Z,85.40
2018-01-28T04:50:05.314Z,85.30
2018-01-28T04:52:32.892Z,85.00
2018-01-28T04:55:00.368Z,84.90
2018-01-28T04:57:28.623Z,84.90
2018-01-28T04:59:56.164Z,84.90
2018-01-28T05:02:23.664Z,85.10
2018-01-28T05:04:51.939Z,84.90
2018-01-28T05:07:20.231Z,84.60
2018-01-28T05:09:47.765Z,84.40
2018-01-28T05:12:16.068Z,84.50
2018-01-28T05:14:43.564Z,84.50
2018-01-28T05:17:11.084Z,84.50
2018-01-28T05:19:38.571Z,84.30
2018-01-28T05:22:06.113Z,84.30
2018-01-28T05:24:33.686Z,84.30
2018-01-28T05:27:01.187Z,84.10
2018-01-28T05:29:29.483Z,83.70
2018-01-28T05:31:56.975Z,83.70
2018-01-28T05:34:24.502Z,83.50
2018-01-28T05:36:52.002Z,83.60
2018-01-28T05:39:19.534Z,83.60
2018-01-28T05:41:47.043Z,83.10
2018-01-28T05:44:15.320Z,83.20
2018-01-28T05:46:43.614Z,83.00
2018-01-28T05:49:11.108Z,83.00
2018-01-28T05:51:38.645Z,82.80
2018-01-28T05:54:06.150Z,82.70
2018-01-28T05:56:33.664Z,82.60
2018-01-28T05:59:01.195Z,82.20
2018-01-28T06:01:29.527Z,82.00
2018-01-28T06:03:57.047Z,82.00
2018-01-28T06:06:24.547Z,81.70
2018-01-28T06:08:52.073Z,81.40
2018-01-28T06:11:19.573Z,81.10
2018-01-28T06:13:47.100Z,81.00
2018-01-28T06:16:14.639Z,81.20
2018-01-28T06:18:42.132Z,80.80
2018-01-28T06:21:09.652Z,80.70
2018-01-28T06:23:37.149Z,80.50
2018-01-28T06:26:04.672Z,80.20
2018-01-28T06:28:32.160Z,79.70
2018-01-28T06:30:59.647Z,79.30
2018-01-28T06:33:27.934Z,79.70
2018-01-28T06:35:58.227Z,79.40
2018-01-28T06:38:25.743Z,79.40
2018-01-28T06:40:53.245Z,79.00
2018-01-28T06:43:20.782Z,78.60
2018-01-28T06:45:48.323Z,78.50
2018-01-28T06:48:15.814Z,78.40
2018-01-28T06:50:43.324Z,78.00
2018-01-28T06:53:10.861Z,78.10
2018-01-28T06:55:39.114Z,77.90
2018-01-28T06:58:06.615Z,77.90
2018-01-28T07:00:34.152Z,77.50
2018-01-28T07:03:02.395Z,77.00
2018-01-28T07:05:29.923Z,77.00
2018-01-28T07:07:57.407Z,76.80
2018-01-28T07:10:24.960Z,77.00
2018-01-28T07:12:52.449Z,77.00
2018-01-28T07:15:20.746Z,76.90
2018-01-28T07:17:48.245Z,76.80
2018-01-28T07:20:15.735Z,76.60
2018-01-28T07:22:44.033Z,76.30
2018-01-28T07:25:11.541Z,76.30
2018-01-28T07:27:39.077Z,76.50
2018-01-28T07:30:06.569Z,76.10
2018-01-28T07:32:34.051Z,75.90
2018-01-28T07:35:01.574Z,76.60
2018-01-28T07:37:29.064Z,77.10
2018-01-28T07:39:57.373Z,75.40
2018-01-28T07:42:24.862Z,75.30
2018-01-28T07:44:52.381Z,75.50
2018-01-28T07:47:19.891Z,75.60
2018-01-28T07:49:47.446Z,75.20
2018-01-28T07:52:14.965Z,75.60
2018-01-28T07:54:42.444Z,75.20
2018-01-28T07:57:09.976Z,74.20
2018-01-28T07:59:37.515Z,74.30
2018-01-28T08:02:05.049Z,74.10
2018-01-28T08:04:33.314Z,74.30
2018-01-28T08:07:00.851Z,74.20
2018-01-28T08:09:28.359Z,73.90
2018-01-28T08:14:54.916Z,74.50
2018-01-28T08:17:22.416Z,74.80
2018-01-28T08:19:49.955Z,73.50
2018-01-28T08:22:17.449Z,71.90
2018-01-28T08:24:44.969Z,71.20
2018-01-28T08:27:18.232Z,70.80
2018-01-28T08:29:45.750Z,71.30
2018-01-28T08:32:13.253Z,71.40
2018-01-28T08:34:40.779Z,71.40
2018-01-28T08:37:09.055Z,70.90
2018-01-28T08:39:36.606Z,70.80
2018-01-28T08:42:04.102Z,70.40
2018-01-28T08:44:31.674Z,69.60
2018-01-28T08:46:59.176Z,69.50
2018-01-28T08:49:26.706Z,69.70
2018-01-28T08:51:54.236Z,69.90
2018-01-28T08:54:21.749Z,68.80
2018-01-28T08:56:49.293Z,69.20
2018-01-28T08:59:16.797Z,69.30
2018-01-28T09:01:45.137Z,68.40
2018-01-28T09:04:12.674Z,68.20
2018-01-28T09:06:40.175Z,67.90
2018-01-28T09:09:08.499Z,68.00
2018-01-28T09:11:36.026Z,68.00
2018-01-28T09:14:03.532Z,67.70
2018-01-28T09:16:31.067Z,67.70
2018-01-28T09:18:58.572Z,68.10
2018-01-28T09:21:26.089Z,67.60
2018-01-28T09:23:53.604Z,66.90
2018-01-28T09:26:22.360Z,67.00
2018-01-28T09:28:49.868Z,67.00
2018-01-28T09:31:17.387Z,67.10
2018-01-28T09:33:44.884Z,66.70
2018-01-28T09:36:12.432Z,66.80
2018-01-28T09:38:40.016Z,66.40
2018-01-28T09:41:07.514Z,65.90
2018-01-28T09:43:35.059Z,66.10
2018-01-28T09:46:02.577Z,66.00
2018-01-28T09:48:30.303Z,66.10
2018-01-28T09:50:58.573Z,65.60
2018-01-28T09:53:26.084Z,65.60
2018-01-28T09:55:53.602Z,66.10
2018-01-28T09:58:21.887Z,66.20
2018-01-28T10:00:49.412Z,66.10
2018-01-28T10:03:16.948Z,65.90
2018-01-28T10:05:44.494Z,65.80
2018-01-28T10:08:12.047Z,65.90
2018-01-28T10:10:39.582Z,65.90
2018-01-28T10:13:07.147Z,66.00
2018-01-28T10:15:34.658Z,65.30
2018-01-28T10:18:02.214Z,65.60
2018-01-28T10:20:29.740Z,65.70
2018-01-28T10:22:57.322Z,65.80
2018-01-28T10:25:24.839Z,65.50
2018-01-28T10:27:52.389Z,65.10
2018-01-28T10:30:19.904Z,66.50
2018-01-28T10:32:47.414Z,65.50
2018-01-28T10:35:14.971Z,65.30
2018-01-28T10:37:42.539Z,64.70
2018-01-28T10:40:10.236Z,64.90
2018-01-28T10:42:37.767Z,63.50
2018-01-28T10:45:05.345Z,64.00
2018-01-28T10:47:32.907Z,63.90
2018-01-28T10:50:00.410Z,63.90
2018-01-28T10:52:27.934Z,64.00
2018-01-28T10:54:55.475Z,64.30
2018-01-28T10:57:23.030Z,63.80
2018-01-28T10:59:50.589Z,63.90
2018-01-28T11:02:18.095Z,63.90
2018-01-28T11:04:46.386Z,64.80
2018-01-28T11:07:13.897Z,64.80
2018-01-28T11:09:41.477Z,65.20
2018-01-28T11:12:09.737Z,65.60
2018-01-28T11:14:37.318Z,65.60
2018-01-28T11:17:05.621Z,65.60
2018-01-28T11:19:33.158Z,65.60
2018-01-28T11:22:00.723Z,65.50
2018-01-28T11:24:28.297Z,65.60
2018-01-28T11:26:55.817Z,66.00
2018-01-28T11:29:23.356Z,66.20
2018-01-28T11:31:50.907Z,66.40
2018-01-28T11:34:18.419Z,66.70
2018-01-28T11:36:45.984Z,66.60
2018-01-28T11:39:13.496Z,66.80
2018-01-28T11:41:41.019Z,66.60
2018-01-28T11:44:08.544Z,66.40
2018-01-28T11:46:36.061Z,66.20
2018-01-28T11:49:03.638Z,66.20
2018-01-28T11:51:31.936Z,66.10
2018-01-28T11:53:59.496Z,66.10
2018-01-28T11:56:27.024Z,65.80
2018-01-28T11:58:54.547Z,65.30
2018-01-28T12:01:22.144Z,65.30
2018-01-28T12:03:49.653Z,65.00
2018-01-28T12:06:17.203Z,64.90
2018-01-28T12:08:45.099Z,64.80
2018-01-28T12:11:12.853Z,64.20
2018-01-28T12:13:41.025Z,64.00
2018-01-28T12:16:09.008Z,63.60
2018-01-28T12:18:37.581Z,63.00
2018-01-28T12:21:05.345Z,63.40
2018-01-28T12:23:33.138Z,63.40
2018-01-28T12:26:01.523Z,63.10
2018-01-28T12:28:29.302Z,63.10
2018-01-28T12:30:57.100Z,63.50
2018-01-28T12:33:24.933Z,63.80
2018-01-28T12:35:52.732Z,63.80
2018-01-28T12:38:20.325Z,64.00
2018-01-28T12:40:48.968Z,63.80
2018-01-28T12:43:16.711Z,63.80
2018-01-28T12:45:44.266Z,64.10
2018-01-28T12:48:11.805Z,64.20
2018-01-28T12:50:40.101Z,64.50
2018-01-28T12:53:07.625Z,64.50
2018-01-28T12:55:35.167Z,64.60
2018-01-28T12:58:02.794Z,65.20
2018-01-28T13:00:30.346Z,64.80
2018-01-28T13:02:58.007Z,65.00
2018-01-28T13:05:25.536Z,65.00
2018-01-28T13:07:53.848Z,65.40
2018-01-28T13:10:21.352Z,65.30
2018-01-28T13:12:48.861Z,65.40
2018-01-28T13:15:16.405Z,65.30
2018-01-28T13:17:43.919Z,65.40
2018-01-28T13:20:11.486Z,65.50
2018-01-28T13:22:39.767Z,65.70
2018-01-28T13:25:07.275Z,65.70
2018-01-28T13:27:34.816Z,65.60
2018-01-28T13:30:02.378Z,65.70
2018-01-28T13:32:29.917Z,65.50
2018-01-28T13:34:58.193Z,64.80
2018-01-28T13:37:26.474Z,64.40
2018-01-28T13:39:53.989Z,64.40
2018-01-28T13:42:21.532Z,64.20
2018-01-28T13:44:49.040Z,63.50
2018-01-28T13:47:17.365Z,63.20
2018-01-28T13:49:45.026Z,63.10
2018-01-28T13:52:12.527Z,63.10
2018-01-28T13:54:40.823Z,63.10
2018-01-28T13:57:08.332Z,63.00
2018-01-28T13:59:35.920Z,63.20
2018-01-28T14:02:04.191Z,63.90
2018-01-28T14:04:32.501Z,64.00
2018-01-28T14:07:00.027Z,63.80
2018-01-28T14:09:28.345Z,64.30
2018-01-28T14:11:55.864Z,64.30
2018-01-28T14:14:24.158Z,64.60
2018-01-28T14:16:51.706Z,64.60
2018-01-28T14:19:19.980Z,65.20
2018-01-28T14:21:47.518Z,65.20
2018-01-28T14:24:15.828Z,66.60
2018-01-28T14:26:43.364Z,65.70
2018-01-28T14:29:11.639Z,66.10
2018-01-28T14:31:39.910Z,66.10
2018-01-28T14:34:08.217Z,66.40
2018-01-28T14:36:35.729Z,66.20
2018-01-28T14:39:04.034Z,68.00
2018-01-28T14:41:32.309Z,68.20
2018-01-28T14:43:59.852Z,68.10
2018-01-28T14:46:28.181Z,68.90
2018-01-28T14:48:55.711Z,68.90
2018-01-28T14:51:24.075Z,69.20
2018-01-28T14:53:53.228Z,69.60
2018-01-28T14:56:20.957Z,69.50
2018-01-28T14:58:48.485Z,69.70
2018-01-28T15:01:15.984Z,70.10
2018-01-28T15:03:43.520Z,70.00
2018-01-28T15:06:11.034Z,70.10
2018-01-28T15:08:38.552Z,70.30
2018-01-28T15:11:06.090Z,70.40
2018-01-28T15:13:33.656Z,70.50
2018-01-28T15:16:01.165Z,70.80
2018-01-28T15:18:28.693Z,70.80
2018-01-28T15:20:56.243Z,70.80
2018-01-28T15:23:23.800Z,71.10
2018-01-28T15:25:51.311Z,71.20
2018-01-28T15:28:18.821Z,71.40
2018-01-28T15:30:46.373Z,71.30
2018-01-28T15:33:13.887Z,71.20
2018-01-28T15:35:42.220Z,71.70
2018-01-28T15:38:09.756Z,71.60
2018-01-28T15:40:37.281Z,71.60
2018-01-28T15:43:05.706Z,72.00
2018-01-28T15:45:33.225Z,71.90
2018-01-28T15:48:01.521Z,72.20
2018-01-28T15:50:29.064Z,72.10
2018-01-28T15:52:56.570Z,72.10
2018-01-28T15:55:24.085Z,72.00
2018-01-28T15:57:51.629Z,72.00
2018-01-28T16:00:19.953Z,72.20
2018-01-28T16:02:47.477Z,72.20
2018-01-28T16:05:15.095Z,72.30
2018-01-28T16:07:42.620Z,72.60
2018-01-28T16:10:10.241Z,72.80
2018-01-28T16:12:38.518Z,72.90
2018-01-28T16:15:06.821Z,72.80
2018-01-28T16:17:34.382Z,72.80
2018-01-28T16:20:01.908Z,73.00
2018-01-28T16:22:30.244Z,73.00
2018-01-28T16:24:57.793Z,73.00
2018-01-28T16:27:25.329Z,73.10
2018-01-28T16:29:52.837Z,73.20
2018-01-28T16:32:21.184Z,73.30
2018-01-28T16:34:49.363Z,73.30
2018-01-28T16:37:16.872Z,73.20
2018-01-28T16:39:45.292Z,73.50
2018-01-28T16:42:12.832Z,73.40
2018-01-28T16:44:40.371Z,73.50
2018-01-28T16:47:07.920Z,73.70
2018-01-28T16:49:36.261Z,73.80
2018-01-28T16:52:04.567Z,73.70
2018-01-28T16:54:32.856Z,73.70
2018-01-28T16:57:00.410Z,73.70
2018-01-28T16:59:28.671Z,73.90
2018-01-28T17:01:56.975Z,74.00
2018-01-28T17:04:24.525Z,74.00
2018-01-28T17:06:52.794Z,74.20
2018-01-28T17:09:20.321Z,74.20
2018-01-28T17:11:47.851Z,74.30
2018-01-28T17:14:15.400Z,74.50
2018-01-28T17:16:42.894Z,75.00
2018-01-28T17:19:10.442Z,75.10
2018-01-28T17:21:37.962Z,75.10
2018-01-28T17:24:05.565Z,75.10
2018-01-28T17:26:33.088Z,75.30
2018-01-28T17:29:00.597Z,75.40
2018-01-28T17:31:28.172Z,75.50
2018-01-28T17:33:56.466Z,75.70
2018-01-28T17:36:24.008Z,75.50
2018-01-28T17:38:52.328Z,75.50
2018-01-28T17:41:19.841Z,75.50
2018-01-28T17:43:47.384Z,75.50
2018-01-28T17:46:14.921Z,75.30
2018-01-28T17:48:42.470Z,75.30
2018-01-28T17:51:09.996Z,75.40
2018-01-28T17:53:37.540Z,75.40
2018-01-28T17:56:05.092Z,75.50
2018-01-28T17:58:32.638Z,75.60
2018-01-28T18:01:00.917Z,75.90
2018-01-28T18:03:29.260Z,76.00
2018-01-28T18:05:57.008Z,75.80
2018-01-28T18:08:24.738Z,76.20
2018-01-28T18:10:52.270Z,76.40
2018-01-28T18:13:20.554Z,76.80
2018-01-28T18:15:48.902Z,76.80
2018-01-28T18:18:17.221Z,77.10
2018-01-28T18:20:44.749Z,76.90
2018-01-28T18:23:12.248Z,77.10
2018-01-28T18:25:39.808Z,77.00
2018-01-28T18:28:07.311Z,76.90
2018-01-28T18:30:34.843Z,77.70
2018-01-28T18:33:02.375Z,77.70
2018-01-28T18:35:29.899Z,77.50
2018-01-28T18:37:58.212Z,77.50
2018-01-28T18:40:25.817Z,77.00
2018-01-28T18:42:53.385Z,77.00
2018-01-28T18:45:20.887Z,77.00
2018-01-28T18:47:48.439Z,77.10
2018-01-28T18:50:15.983Z,77.10
2018-01-28T18:52:43.499Z,77.20
2018-01-28T18:55:11.082Z,77.30
2018-01-28T18:57:41.810Z,77.70
2018-01-28T19:00:09.353Z,77.60
2018-01-28T19:02:36.882Z,77.90
2018-01-28T19:05:04.431Z,78.20
2018-01-28T19:07:31.987Z,78.30
2018-01-28T19:09:59.517Z,78.50
2018-01-28T19:12:27.832Z,78.60
2018-01-28T19:14:55.348Z,78.60
2018-01-28T19:17:23.733Z,78.60
2018-01-28T19:19:52.042Z,78.50
2018-01-28T19:22:19.572Z,78.50
2018-01-28T19:24:47.130Z,78.50
2018-01-28T19:27:15.404Z,78.70
2018-01-28T19:29:43.729Z,78.80
2018-01-28T19:32:11.240Z,78.80
2018-01-28T19:34:38.804Z,78.70
2018-01-28T19:37:06.325Z,78.80
2018-01-28T19:39:33.925Z,79.20
2018-01-28T19:42:01.482Z,80.50
2018-01-28T19:44:28.985Z,80.80
2018-01-28T19:46:56.506Z,80.80
2018-01-28T19:49:24.065Z,80.80
2018-01-28T19:51:51.634Z,80.80
2018-01-28T19:54:19.152Z,80.80
2018-01-28T19:56:47.507Z,81.00
2018-01-28T19:59:15.005Z,81.00
2018-01-28T20:01:42.521Z,81.10
2018-01-28T20:04:10.071Z,81.20
2018-01-28T20:06:37.585Z,81.20
2018-01-28T20:09:05.976Z,81.40
2018-01-28T20:11:33.529Z,81.60
2018-01-28T20:14:01.055Z,81.80
2018-01-28T20:16:29.376Z,82.90
2018-01-28T20:18:56.938Z,82.00
2018-01-28T20:21:24.474Z,82.00
2018-01-28T20:23:52.025Z,82.00
2018-01-28T20:26:19.552Z,82.00
2018-01-28T20:28:47.133Z,81.90
2018-01-28T20:31:14.652Z,82.70
2018-01-28T20:33:43.712Z,82.10
2018-01-28T20:36:11.261Z,82.10
2018-01-28T20:38:38.818Z,82.30
2018-01-28T20:41:06.368Z,83.00
2018-01-28T20:43:33.927Z,82.20
2018-01-28T20:46:01.490Z,81.80
2018-01-28T20:48:29.012Z,81.50
2018-01-28T20:50:56.587Z,81.10
2018-01-28T20:53:24.860Z,80.40
2018-01-28T20:55:53.190Z,80.50
2018-01-28T20:58:20.748Z,80.50
2018-01-28T21:00:48.279Z,80.40
2018-01-28T21:03:15.827Z,79.00
2018-01-28T21:05:43.363Z,78.40
2018-01-28T21:08:11.690Z,79.10
2018-01-28T21:10:39.197Z,79.10
2018-01-28T21:13:06.728Z,79.00
2018-01-28T21:15:34.259Z,79.00
2018-01-28T21:18:01.757Z,78.80
2018-01-28T21:20:29.280Z,78.50
2018-01-28T21:22:56.823Z,78.50
2018-01-28T21:25:24.358Z,78.30
2018-01-28T21:27:52.132Z,77.20
2018-01-28T21:30:19.668Z,78.10
2018-01-28T21:32:47.962Z,77.10
2018-01-28T21:35:15.479Z,77.00
2018-01-28T21:37:43.029Z,77.00
2018-01-28T21:40:10.570Z,77.20
2018-01-28T21:42:38.153Z,77.00
2018-01-28T21:45:05.678Z,76.40
2018-01-28T21:47:33.184Z,76.40
2018-01-28T21:50:01.523Z,76.50
2018-01-28T21:52:29.040Z,76.30
2018-01-28T21:54:57.350Z,76.10
2018-01-28T21:57:24.868Z,76.10
2018-01-28T21:59:53.229Z,76.00
2018-01-28T22:02:21.536Z,76.20
2018-01-28T22:04:49.166Z,76.00
2018-01-28T22:07:17.471Z,76.40
2018-01-28T22:09:45.086Z,76.40
2018-01-28T22:12:12.649Z,76.20
2018-01-28T22:14:40.366Z,76.20
2018-01-28T22:17:08.000Z,76.20
2018-01-28T22:19:35.531Z,76.30
2018-01-28T22:22:03.107Z,76.40
2018-01-28T22:24:31.433Z,76.30
2018-01-28T22:26:58.966Z,76.30
2018-01-28T22:29:26.535Z,76.30
2018-01-28T22:31:54.072Z,76.40
2018-01-28T22:34:21.604Z,76.40
2018-01-28T22:36:49.118Z,76.60
2018-01-28T22:39:16.685Z,76.90
2018-01-28T22:41:44.236Z,77.00
2018-01-28T22:44:11.784Z,77.20
2018-01-28T22:46:39.317Z,76.80
2018-01-28T22:49:07.649Z,76.20
2018-01-28T22:51:35.173Z,76.20
2018-01-28T22:54:02.681Z,76.10
2018-01-28T22:56:30.252Z,75.90
2018-01-28T22:58:58.547Z,76.40
2018-01-28T23:01:26.080Z,76.40
2018-01-28T23:03:53.593Z,76.40
2018-01-28T23:06:21.149Z,76.50
2018-01-28T23:08:48.648Z,76.40
2018-01-28T23:11:16.523Z,76.30
2018-01-28T23:13:44.282Z,76.20
2018-01-28T23:16:12.553Z,76.10
2018-01-28T23:18:40.076Z,76.10
2018-01-28T23:21:07.581Z,75.90
2018-01-28T23:23:35.151Z,75.90
2018-01-28T23:26:03.429Z,75.70
2018-01-28T23:28:30.947Z,75.70
2018-01-28T23:30:58.477Z,75.60
2018-01-28T23:33:26.025Z,75.30
2018-01-28T23:35:53.559Z,75.40
2018-01-28T23:38:21.837Z,75.50
2018-01-28T23:40:49.381Z,75.50
2018-01-28T23:43:17.666Z,75.40
2018-01-28T23:45:45.935Z,75.50
2018-01-28T23:48:14.231Z,75.60
2018-01-28T23:50:41.740Z,76.40
2018-01-28T23:53:09.263Z,75.80
2018-01-28T23:55:36.795Z,77.20
2018-01-28T23:58:04.321Z,77.40
